createdAt,value
2023-05-07T00:01:33.036Z,10.49
2023-05-07T00:06:34.730Z,10.38
2023-05-07T00:11:37.319Z,10.60
2023-05-07T00:16:39.129Z,10.57
2023-05-07T00:21:40.790Z,10.53
2023-05-07T00:26:42.584Z,10.34
2023-05-07T00:31:44.245Z,10.37
2023-05-07T00:36:46.022Z,10.41
2023-05-07T00:41:48.309Z,10.15
2023-05-07T00:46:50.977Z,10.23
2023-05-07T00:51:52.800Z,9.90
2023-05-07T00:56:55.450Z,9.97
2023-05-07T01:01:57.053Z,10.20
2023-05-07T01:07:01.287Z,10.16
2023-05-07T01:12:04.399Z,9.74
2023-05-07T01:17:06.361Z,10.01
2023-05-07T01:22:16.218Z,9.95
2023-05-07T01:27:24.282Z,10.14
2023-05-07T01:32:35.169Z,10.01
2023-05-07T01:37:38.022Z,9.74
2023-05-07T01:42:40.598Z,10.05
2023-05-07T01:47:43.837Z,10.03
2023-05-07T01:52:45.548Z,10.14
2023-05-07T01:57:47.161Z,9.78
2023-05-07T02:02:49.043Z,9.84
2023-05-07T02:14:25.065Z,10.28
2023-05-07T02:19:26.690Z,10.15
2023-05-07T02:24:29.713Z,10.26
2023-05-07T02:29:32.131Z,10.18
2023-05-07T02:34:33.978Z,9.90
2023-05-07T02:39:35.955Z,9.98
2023-05-07T02:44:37.609Z,10.09
2023-05-07T02:49:39.365Z,9.99
2023-05-07T02:54:43.267Z,10.07
2023-05-07T02:59:45.016Z,10.07
2023-05-07T03:04:48.404Z,10.16
2023-05-07T03:09:50.031Z,10.21
2023-05-07T03:14:51.785Z,9.83
2023-05-07T03:19:53.464Z,10.07
2023-05-07T03:24:55.391Z,10.03
2023-05-07T03:29:57.039Z,9.91
2023-05-07T03:34:58.917Z,9.97
2023-05-07T03:40:01.061Z,10.05
2023-05-07T03:45:03.451Z,10.23
2023-05-07T03:50:06.179Z,10.27
2023-05-07T03:55:08.604Z,10.22
2023-05-07T04:00:13.547Z,10.09
2023-05-07T04:05:24.650Z,10.18
2023-05-07T04:10:31.071Z,10.26
2023-05-07T04:15:34.260Z,10.11
2023-05-07T04:20:37.682Z,10.17
2023-05-07T04:25:42.667Z,10.22
2023-05-07T04:30:56.732Z,10.11
2023-05-07T04:36:03.764Z,10.33
2023-05-07T04:41:07.896Z,10.09
2023-05-07T04:46:14.155Z,10.12
2023-05-07T04:51:17.554Z,10.04
2023-05-07T04:56:19.440Z,10.03
2023-05-07T05:01:22.735Z,10.07
2023-05-07T05:06:24.514Z,9.91
2023-05-07T05:11:27.289Z,9.88
2023-05-07T05:16:29.587Z,9.70
2023-05-07T05:21:32.941Z,9.98
2023-05-07T05:26:40.398Z,10.11
2023-05-07T05:31:43.027Z,9.94
2023-05-07T05:36:45.803Z,10.35
2023-05-07T05:41:49.043Z,10.47
2023-05-07T05:46:51.673Z,9.94
2023-05-07T05:51:53.778Z,9.86
2023-05-07T05:56:56.827Z,9.80
2023-05-07T06:01:59.904Z,10.26
2023-05-07T06:07:01.573Z,10.00
2023-05-07T06:12:03.544Z,10.20
2023-05-07T06:17:06.572Z,9.95
2023-05-07T06:22:08.496Z,9.91
2023-05-07T06:27:10.809Z,10.07
2023-05-07T06:32:14.693Z,9.79
2023-05-07T06:37:18.482Z,9.49
2023-05-07T06:42:28.296Z,9.56
2023-05-07T06:47:34.498Z,9.86
2023-05-07T06:52:36.899Z,10.03
2023-05-07T06:57:40.889Z,9.96
2023-05-07T07:02:43.087Z,10.06
2023-05-07T07:07:45.886Z,9.94
2023-05-07T07:12:47.897Z,10.37
2023-05-07T07:17:50.118Z,10.44
2023-05-07T07:22:52.083Z,10.72
2023-05-07T07:27:53.710Z,10.50
2023-05-07T07:33:01.626Z,10.47
2023-05-07T07:38:03.637Z,10.38
2023-05-07T07:43:06.015Z,10.25
2023-05-07T07:48:08.175Z,10.16
2023-05-07T07:53:12.781Z,9.99
2023-05-07T07:58:14.593Z,10.13
2023-05-07T08:03:17.871Z,10.36
2023-05-07T08:08:23.733Z,10.66
2023-05-07T08:13:26.367Z,10.50
2023-05-07T08:18:29.993Z,11.07
2023-05-07T08:23:35.573Z,10.64
2023-05-07T08:28:38.428Z,10.60
2023-05-07T08:33:40.108Z,10.63
2023-05-07T08:38:43.879Z,10.65
2023-05-07T08:43:52.065Z,10.85
2023-05-07T08:48:54.321Z,10.78
2023-05-07T08:53:56.046Z,10.65
2023-05-07T08:59:02.665Z,10.84
2023-05-07T09:04:06.785Z,11.40
2023-05-07T09:09:09.535Z,11.22
2023-05-07T09:14:11.335Z,11.79
2023-05-07T09:19:16.436Z,11.52
2023-05-07T09:24:21.026Z,11.57
2023-05-07T09:29:23.178Z,11.45
2023-05-07T09:34:25.698Z,11.57
2023-05-07T09:39:39.149Z,11.59
2023-05-07T09:44:41.501Z,12.05
2023-05-07T09:49:51.829Z,12.08
2023-05-07T09:55:00.283Z,11.43
2023-05-07T10:00:07.294Z,11.51
2023-05-07T10:05:26.230Z,11.50
2023-05-07T10:10:31.930Z,11.61
2023-05-07T10:15:34.486Z,12.46
2023-05-07T10:20:38.237Z,13.14
2023-05-07T10:25:42.618Z,13.17
2023-05-07T10:31:02.062Z,13.21
2023-05-07T10:36:10.658Z,13.53
2023-05-07T10:41:12.860Z,13.72
2023-05-07T10:46:22.098Z,12.51
2023-05-07T10:51:34.536Z,11.81
2023-05-07T10:56:44.770Z,12.74
2023-05-07T11:02:09.082Z,13.09
2023-05-07T11:07:29.205Z,12.57
2023-05-07T11:12:39.659Z,12.32
2023-05-07T11:18:00.957Z,13.43
2023-05-07T11:23:08.386Z,12.32
2023-05-07T11:28:20.582Z,12.17
2023-05-07T11:33:31.395Z,12.50
2023-05-07T11:38:38.606Z,13.40
2023-05-07T11:43:55.450Z,13.29
2023-05-07T11:48:57.733Z,13.69
2023-05-07T11:53:59.342Z,15.03
2023-05-07T11:59:01.090Z,15.33
2023-05-07T12:04:04.383Z,15.34
2023-05-07T12:09:08.494Z,14.81
2023-05-07T12:14:12.229Z,13.79
2023-05-07T12:19:16.053Z,14.07
2023-05-07T12:24:17.812Z,14.01
2023-05-07T12:29:23.800Z,13.81
2023-05-07T12:34:25.591Z,13.68
2023-05-07T12:39:27.223Z,14.02
2023-05-07T12:44:35.937Z,13.43
2023-05-07T12:49:41.185Z,13.60
2023-05-07T12:54:42.905Z,14.05
2023-05-07T12:59:44.538Z,14.06
2023-05-07T13:04:46.142Z,14.50
2023-05-07T13:09:49.232Z,15.99
2023-05-07T13:14:51.030Z,16.55
2023-05-07T13:19:52.704Z,15.13
2023-05-07T13:24:54.345Z,14.24
2023-05-07T13:29:55.980Z,13.96
2023-05-07T13:34:57.767Z,14.12
2023-05-07T13:39:59.396Z,14.24
2023-05-07T13:45:01.756Z,14.00
2023-05-07T13:50:03.446Z,14.06
2023-05-07T13:55:05.609Z,14.50
2023-05-07T14:00:07.785Z,14.65
2023-05-07T14:05:16.573Z,14.43
2023-05-07T14:10:19.728Z,13.64
2023-05-07T14:15:21.555Z,13.89
2023-05-07T14:20:23.161Z,13.89
2023-05-07T14:25:24.812Z,13.77
2023-05-07T14:30:27.222Z,14.08
2023-05-07T14:35:28.884Z,13.78
2023-05-07T14:40:30.588Z,13.82
2023-05-07T14:45:32.220Z,13.95
2023-05-07T14:50:33.856Z,13.80
2023-05-07T14:55:36.029Z,13.93
2023-05-07T15:00:37.826Z,13.60
2023-05-07T15:05:39.431Z,13.43
2023-05-07T15:10:43.881Z,13.76
2023-05-07T15:15:45.960Z,14.06
2023-05-07T15:20:47.595Z,13.52
2023-05-07T15:25:52.152Z,13.45
2023-05-07T15:30:56.223Z,13.48
2023-05-07T15:35:59.932Z,13.42
2023-05-07T15:41:01.592Z,12.99
2023-05-07T15:46:03.229Z,13.04
2023-05-07T15:51:06.413Z,12.87
2023-05-07T15:56:08.449Z,13.16
2023-05-07T16:01:10.531Z,13.00
2023-05-07T16:06:12.702Z,12.79
2023-05-07T16:11:14.385Z,13.04
2023-05-07T16:16:16.058Z,12.55
2023-05-07T16:21:17.794Z,12.41
2023-05-07T16:26:19.413Z,12.69
2023-05-07T16:31:21.030Z,12.67
2023-05-07T16:36:22.901Z,12.81
2023-05-07T16:41:24.531Z,12.67
2023-05-07T16:46:26.530Z,12.73
2023-05-07T16:51:29.370Z,12.61
2023-05-07T16:56:31.145Z,12.26
2023-05-07T17:01:32.875Z,12.42
2023-05-07T17:06:34.613Z,11.95
2023-05-07T17:11:36.300Z,11.84
2023-05-07T17:16:37.968Z,11.64
2023-05-07T17:21:39.599Z,11.40
2023-05-07T17:26:43.169Z,11.39
2023-05-07T17:31:44.919Z,11.51
2023-05-07T17:36:46.610Z,11.58
2023-05-07T17:41:48.233Z,11.24
2023-05-07T17:46:50.017Z,11.11
2023-05-07T17:51:55.273Z,10.99
2023-05-07T17:56:57.328Z,10.93
2023-05-07T18:01:58.969Z,10.82
2023-05-07T18:07:00.792Z,10.65
2023-05-07T18:12:02.439Z,10.49
2023-05-07T18:17:04.038Z,10.40
2023-05-07T18:22:05.721Z,10.24
2023-05-07T18:27:07.432Z,10.14
2023-05-07T18:32:09.169Z,10.06
2023-05-07T18:37:10.817Z,10.01
2023-05-07T18:42:13.082Z,9.88
2023-05-07T18:47:14.692Z,9.86
2023-05-07T18:52:18.025Z,9.71
2023-05-07T18:57:19.618Z,9.70
2023-05-07T19:02:21.606Z,9.61
2023-05-07T19:07:23.230Z,9.63
2023-05-07T19:12:24.894Z,9.45
2023-05-07T19:17:26.530Z,9.43
2023-05-07T19:22:28.230Z,9.41
2023-05-07T19:27:29.834Z,9.26
2023-05-07T19:32:31.525Z,9.24
2023-05-07T19:37:33.186Z,9.14
2023-05-07T19:42:35.203Z,9.05
2023-05-07T19:47:36.857Z,9.04
2023-05-07T19:52:38.451Z,8.83
2023-05-07T19:57:40.076Z,8.79
2023-05-07T20:02:41.766Z,8.71
2023-05-07T20:07:46.257Z,8.64
2023-05-07T20:12:48.092Z,8.60
2023-05-07T20:17:49.819Z,8.60
2023-05-07T20:22:51.471Z,8.71
2023-05-07T20:27:53.099Z,8.85
2023-05-07T20:32:54.735Z,8.90
2023-05-07T20:37:56.804Z,8.92
2023-05-07T20:42:58.490Z,9.11
2023-05-07T20:48:00.251Z,9.01
2023-05-07T20:53:02.087Z,9.13
2023-05-07T20:58:03.693Z,9.01
2023-05-07T21:03:05.491Z,8.99
2023-05-07T21:08:07.157Z,8.88
2023-05-07T21:13:08.756Z,8.79
2023-05-07T21:18:11.394Z,8.70
2023-05-07T21:23:13.104Z,8.51
2023-05-07T21:28:14.713Z,8.64
2023-05-07T21:33:16.417Z,8.67
2023-05-07T21:38:18.878Z,8.56
2023-05-07T21:43:20.484Z,8.58
2023-05-07T21:48:22.379Z,8.42
2023-05-07T21:53:24.072Z,8.31
2023-05-07T21:58:29.458Z,8.27
2023-05-07T22:03:31.265Z,8.16
2023-05-07T22:08:32.952Z,8.27
2023-05-07T22:13:34.545Z,8.28
2023-05-07T22:18:36.209Z,8.34
2023-05-07T22:23:37.867Z,8.34
2023-05-07T22:28:40.623Z,8.23
2023-05-07T22:33:42.318Z,8.37
2023-05-07T22:38:43.952Z,8.42
2023-05-07T22:43:45.575Z,8.33
2023-05-07T22:48:47.178Z,8.29
2023-05-07T22:53:48.855Z,8.22
2023-05-07T22:58:50.517Z,8.21
2023-05-07T23:03:52.753Z,8.32
2023-05-07T23:08:54.884Z,8.18
2023-05-07T23:13:56.679Z,8.02
2023-05-07T23:18:58.821Z,7.95
2023-05-07T23:24:00.689Z,7.92
2023-05-07T23:29:02.430Z,7.72
2023-05-07T23:34:04.100Z,7.61
2023-05-07T23:39:05.756Z,7.36
2023-05-07T23:44:07.386Z,7.05
2023-05-07T23:49:08.983Z,6.83
2023-05-07T23:54:10.613Z,6.68
2023-05-07T23:59:13.450Z,6.48
